sensor_id;sensor_type;location;lat;lon;timestamp;P1;durP1;ratioP1;P2;durP2;ratioP2
35225;SDS011;21813;49.686;21.766;2022-10-16T00:00:35;23.80;;;17.05;;
35225;SDS011;21813;49.686;21.766;2022-10-16T00:03:22;22.77;;;16.25;;
35225;SDS011;21813;49.686;21.766;2022-10-16T00:05:48;25.27;;;17.13;;
35225;SDS011;21813;49.686;21.766;2022-10-16T00:08:14;27.40;;;16.02;;
35225;SDS011;21813;49.686;21.766;2022-10-16T00:10:41;24.77;;;17.50;;
35225;SDS011;21813;49.686;21.766;2022-10-16T00:13:07;28.92;;;16.85;;
35225;SDS011;21813;49.686;21.766;2022-10-16T00:15:35;22.35;;;16.40;;
35225;SDS011;21813;49.686;21.766;2022-10-16T00:18:03;23.75;;;16.05;;
35225;SDS011;21813;49.686;21.766;2022-10-16T00:20:33;26.17;;;16.83;;
35225;SDS011;21813;49.686;21.766;2022-10-16T00:23:01;21.67;;;16.77;;
35225;SDS011;21813;49.686;21.766;2022-10-16T00:25:29;24.23;;;15.95;;
35225;SDS011;21813;49.686;21.766;2022-10-16T00:27:58;25.50;;;16.17;;
35225;SDS011;21813;49.686;21.766;2022-10-16T00:30:25;27.50;;;15.85;;
35225;SDS011;21813;49.686;21.766;2022-10-16T00:32:53;21.35;;;15.95;;
35225;SDS011;21813;49.686;21.766;2022-10-16T00:35:19;26.45;;;15.38;;
35225;SDS011;21813;49.686;21.766;2022-10-16T00:37:45;29.65;;;16.98;;
35225;SDS011;21813;49.686;21.766;2022-10-16T00:40:12;22.17;;;15.70;;
35225;SDS011;21813;49.686;21.766;2022-10-16T00:42:37;23.00;;;15.60;;
35225;SDS011;21813;49.686;21.766;2022-10-16T00:45:05;24.98;;;17.08;;
35225;SDS011;21813;49.686;21.766;2022-10-16T00:52:39;33.50;;;17.30;;
35225;SDS011;21813;49.686;21.766;2022-10-16T00:55:08;26.65;;;16.40;;
35225;SDS011;21813;49.686;21.766;2022-10-16T00:57:34;23.92;;;16.92;;
35225;SDS011;21813;49.686;21.766;2022-10-16T01:00:03;27.02;;;15.77;;
35225;SDS011;21813;49.686;21.766;2022-10-16T01:02:30;23.70;;;16.10;;
35225;SDS011;21813;49.686;21.766;2022-10-16T01:04:58;29.00;;;15.80;;
35225;SDS011;21813;49.686;21.766;2022-10-16T01:15:37;27.48;;;16.25;;
35225;SDS011;21813;49.686;21.766;2022-10-16T01:21:12;25.50;;;16.73;;
35225;SDS011;21813;49.686;21.766;2022-10-16T01:23:48;23.98;;;15.95;;
35225;SDS011;21813;49.686;21.766;2022-10-16T01:31:39;32.20;;;16.33;;
35225;SDS011;21813;49.686;21.766;2022-10-16T01:34:09;27.92;;;16.77;;
35225;SDS011;21813;49.686;21.766;2022-10-16T01:36:53;24.25;;;15.77;;
35225;SDS011;21813;49.686;21.766;2022-10-16T01:39:24;25.27;;;16.33;;
35225;SDS011;21813;49.686;21.766;2022-10-16T01:41:55;23.23;;;15.75;;
35225;SDS011;21813;49.686;21.766;2022-10-16T01:46:55;26.95;;;16.42;;
35225;SDS011;21813;49.686;21.766;2022-10-16T01:49:23;25.63;;;17.42;;
35225;SDS011;21813;49.686;21.766;2022-10-16T01:51:55;24.73;;;16.40;;
35225;SDS011;21813;49.686;21.766;2022-10-16T01:54:25;27.58;;;17.48;;
35225;SDS011;21813;49.686;21.766;2022-10-16T01:56:54;26.57;;;16.53;;
35225;SDS011;21813;49.686;21.766;2022-10-16T01:59:22;21.92;;;16.23;;
35225;SDS011;21813;49.686;21.766;2022-10-16T02:01:58;31.30;;;17.42;;
35225;SDS011;21813;49.686;21.766;2022-10-16T02:04:28;22.88;;;16.08;;
35225;SDS011;21813;49.686;21.766;2022-10-16T02:09:23;22.38;;;15.32;;
35225;SDS011;21813;49.686;21.766;2022-10-16T02:11:52;21.38;;;14.60;;
35225;SDS011;21813;49.686;21.766;2022-10-16T02:14:20;23.20;;;15.55;;
35225;SDS011;21813;49.686;21.766;2022-10-16T02:16:50;24.92;;;16.30;;
35225;SDS011;21813;49.686;21.766;2022-10-16T02:19:16;25.08;;;15.52;;
35225;SDS011;21813;49.686;21.766;2022-10-16T02:21:50;24.52;;;15.10;;
35225;SDS011;21813;49.686;21.766;2022-10-16T02:27:12;27.58;;;16.20;;
35225;SDS011;21813;49.686;21.766;2022-10-16T02:29:46;22.38;;;15.40;;
35225;SDS011;21813;49.686;21.766;2022-10-16T02:32:17;24.58;;;15.02;;
35225;SDS011;21813;49.686;21.766;2022-10-16T02:34:48;23.85;;;15.32;;
35225;SDS011;21813;49.686;21.766;2022-10-16T02:37:16;21.80;;;15.70;;
35225;SDS011;21813;49.686;21.766;2022-10-16T02:39:43;22.10;;;14.48;;
35225;SDS011;21813;49.686;21.766;2022-10-16T02:42:13;25.58;;;15.25;;
35225;SDS011;21813;49.686;21.766;2022-10-16T02:44:39;21.10;;;14.02;;
35225;SDS011;21813;49.686;21.766;2022-10-16T02:47:06;23.85;;;14.90;;
35225;SDS011;21813;49.686;21.766;2022-10-16T02:49:32;27.25;;;14.43;;
35225;SDS011;21813;49.686;21.766;2022-10-16T02:51:59;24.33;;;14.55;;
35225;SDS011;21813;49.686;21.766;2022-10-16T02:54:25;23.73;;;14.63;;
35225;SDS011;21813;49.686;21.766;2022-10-16T02:56:51;21.35;;;14.73;;
35225;SDS011;21813;49.686;21.766;2022-10-16T02:59:17;21.63;;;14.63;;
35225;SDS011;21813;49.686;21.766;2022-10-16T03:01:43;18.98;;;14.93;;
35225;SDS011;21813;49.686;21.766;2022-10-16T03:04:09;25.00;;;15.48;;
35225;SDS011;21813;49.686;21.766;2022-10-16T03:06:36;18.95;;;13.80;;
35225;SDS011;21813;49.686;21.766;2022-10-16T03:09:01;22.35;;;14.25;;
35225;SDS011;21813;49.686;21.766;2022-10-16T03:11:29;24.88;;;14.40;;
35225;SDS011;21813;49.686;21.766;2022-10-16T03:13:57;24.67;;;14.07;;
35225;SDS011;21813;49.686;21.766;2022-10-16T03:16:23;24.58;;;13.95;;
35225;SDS011;21813;49.686;21.766;2022-10-16T03:18:49;24.60;;;14.00;;
35225;SDS011;21813;49.686;21.766;2022-10-16T03:21:15;19.40;;;13.98;;
35225;SDS011;21813;49.686;21.766;2022-10-16T03:23:41;23.98;;;14.07;;
35225;SDS011;21813;49.686;21.766;2022-10-16T03:26:08;23.20;;;14.45;;
35225;SDS011;21813;49.686;21.766;2022-10-16T03:28:34;25.27;;;14.20;;
35225;SDS011;21813;49.686;21.766;2022-10-16T03:31:01;20.52;;;13.88;;
35225;SDS011;21813;49.686;21.766;2022-10-16T03:33:26;21.42;;;13.23;;
35225;SDS011;21813;49.686;21.766;2022-10-16T03:35:53;21.10;;;13.32;;
35225;SDS011;21813;49.686;21.766;2022-10-16T03:38:20;20.98;;;13.88;;
35225;SDS011;21813;49.686;21.766;2022-10-16T03:40:47;23.13;;;14.35;;
35225;SDS011;21813;49.686;21.766;2022-10-16T03:43:13;19.05;;;13.13;;
35225;SDS011;21813;49.686;21.766;2022-10-16T03:45:40;18.40;;;14.48;;
35225;SDS011;21813;49.686;21.766;2022-10-16T03:48:06;21.80;;;12.95;;
35225;SDS011;21813;49.686;21.766;2022-10-16T03:50:32;20.65;;;13.32;;
35225;SDS011;21813;49.686;21.766;2022-10-16T03:52:58;22.00;;;13.68;;
35225;SDS011;21813;49.686;21.766;2022-10-16T03:55:25;20.92;;;13.48;;
35225;SDS011;21813;49.686;21.766;2022-10-16T03:57:51;19.05;;;13.05;;
35225;SDS011;21813;49.686;21.766;2022-10-16T04:00:18;20.33;;;13.73;;
35225;SDS011;21813;49.686;21.766;2022-10-16T04:02:44;18.50;;;13.35;;
35225;SDS011;21813;49.686;21.766;2022-10-16T04:05:10;20.13;;;12.65;;
35225;SDS011;21813;49.686;21.766;2022-10-16T04:07:36;21.05;;;13.57;;
35225;SDS011;21813;49.686;21.766;2022-10-16T04:10:03;18.10;;;13.48;;
35225;SDS011;21813;49.686;21.766;2022-10-16T04:12:29;19.55;;;12.52;;
35225;SDS011;21813;49.686;21.766;2022-10-16T04:14:55;19.05;;;13.52;;
35225;SDS011;21813;49.686;21.766;2022-10-16T04:17:21;23.15;;;13.25;;
35225;SDS011;21813;49.686;21.766;2022-10-16T04:19:48;19.25;;;12.85;;
35225;SDS011;21813;49.686;21.766;2022-10-16T04:22:14;19.58;;;13.55;;
35225;SDS011;21813;49.686;21.766;2022-10-16T04:24:41;19.65;;;13.07;;
35225;SDS011;21813;49.686;21.766;2022-10-16T04:27:06;28.00;;;14.07;;
35225;SDS011;21813;49.686;21.766;2022-10-16T04:29:34;21.60;;;14.00;;
35225;SDS011;21813;49.686;21.766;2022-10-16T04:31:59;19.15;;;12.63;;
35225;SDS011;21813;49.686;21.766;2022-10-16T04:34:26;21.40;;;14.40;;
35225;SDS011;21813;49.686;21.766;2022-10-16T04:36:51;23.02;;;13.52;;
35225;SDS011;21813;49.686;21.766;2022-10-16T04:39:18;20.00;;;13.80;;
35225;SDS011;21813;49.686;21.766;2022-10-16T04:41:44;19.23;;;13.93;;
35225;SDS011;21813;49.686;21.766;2022-10-16T04:44:10;17.88;;;12.77;;
35225;SDS011;21813;49.686;21.766;2022-10-16T04:46:36;20.48;;;14.07;;
35225;SDS011;21813;49.686;21.766;2022-10-16T04:49:03;18.55;;;13.48;;
35225;SDS011;21813;49.686;21.766;2022-10-16T04:51:28;20.65;;;13.43;;
35225;SDS011;21813;49.686;21.766;2022-10-16T04:53:55;20.25;;;13.35;;
35225;SDS011;21813;49.686;21.766;2022-10-16T04:56:21;21.25;;;13.73;;
35225;SDS011;21813;49.686;21.766;2022-10-16T04:58:48;19.95;;;13.65;;
35225;SDS011;21813;49.686;21.766;2022-10-16T05:01:14;20.33;;;13.70;;
35225;SDS011;21813;49.686;21.766;2022-10-16T05:03:40;18.27;;;13.38;;
35225;SDS011;21813;49.686;21.766;2022-10-16T05:06:06;19.70;;;12.70;;
35225;SDS011;21813;49.686;21.766;2022-10-16T05:08:33;23.33;;;14.32;;
35225;SDS011;21813;49.686;21.766;2022-10-16T05:10:59;16.83;;;12.45;;
35225;SDS011;21813;49.686;21.766;2022-10-16T05:13:28;20.98;;;12.98;;
35225;SDS011;21813;49.686;21.766;2022-10-16T05:15:54;20.05;;;13.57;;
35225;SDS011;21813;49.686;21.766;2022-10-16T05:18:20;20.42;;;13.40;;
35225;SDS011;21813;49.686;21.766;2022-10-16T05:20:46;21.10;;;13.55;;
35225;SDS011;21813;49.686;21.766;2022-10-16T05:23:13;22.00;;;13.38;;
35225;SDS011;21813;49.686;21.766;2022-10-16T05:25:39;19.50;;;12.77;;
35225;SDS011;21813;49.686;21.766;2022-10-16T05:28:10;19.98;;;13.05;;
35225;SDS011;21813;49.686;21.766;2022-10-16T05:30:36;17.55;;;13.13;;
35225;SDS011;21813;49.686;21.766;2022-10-16T05:33:03;20.63;;;13.77;;
35225;SDS011;21813;49.686;21.766;2022-10-16T05:35:28;22.42;;;12.77;;
35225;SDS011;21813;49.686;21.766;2022-10-16T05:37:56;20.95;;;12.52;;
35225;SDS011;21813;49.686;21.766;2022-10-16T05:40:21;20.33;;;13.00;;
35225;SDS011;21813;49.686;21.766;2022-10-16T05:42:49;17.95;;;12.07;;
35225;SDS011;21813;49.686;21.766;2022-10-16T05:45:15;18.98;;;12.75;;
35225;SDS011;21813;49.686;21.766;2022-10-16T05:47:41;24.00;;;12.82;;
35225;SDS011;21813;49.686;21.766;2022-10-16T05:50:07;19.58;;;13.32;;
35225;SDS011;21813;49.686;21.766;2022-10-16T05:52:34;19.25;;;12.40;;
35225;SDS011;21813;49.686;21.766;2022-10-16T05:55:00;17.33;;;12.20;;
35225;SDS011;21813;49.686;21.766;2022-10-16T05:57:27;17.88;;;12.52;;
35225;SDS011;21813;49.686;21.766;2022-10-16T05:59:52;20.92;;;11.40;;
35225;SDS011;21813;49.686;21.766;2022-10-16T06:02:19;16.15;;;11.85;;
35225;SDS011;21813;49.686;21.766;2022-10-16T06:04:45;17.45;;;12.77;;
35225;SDS011;21813;49.686;21.766;2022-10-16T06:07:12;16.85;;;11.30;;
35225;SDS011;21813;49.686;21.766;2022-10-16T06:09:37;19.55;;;12.25;;
35225;SDS011;21813;49.686;21.766;2022-10-16T06:12:07;18.75;;;11.77;;
35225;SDS011;21813;49.686;21.766;2022-10-16T06:14:36;22.33;;;11.73;;
35225;SDS011;21813;49.686;21.766;2022-10-16T06:17:06;16.35;;;11.52;;
35225;SDS011;21813;49.686;21.766;2022-10-16T06:19:31;17.48;;;11.73;;
35225;SDS011;21813;49.686;21.766;2022-10-16T06:21:58;22.42;;;12.30;;
35225;SDS011;21813;49.686;21.766;2022-10-16T06:24:24;17.58;;;11.10;;
35225;SDS011;21813;49.686;21.766;2022-10-16T06:26:51;16.05;;;12.00;;
35225;SDS011;21813;49.686;21.766;2022-10-16T06:29:16;14.38;;;10.60;;
35225;SDS011;21813;49.686;21.766;2022-10-16T06:31:43;13.95;;;10.35;;
35225;SDS011;21813;49.686;21.766;2022-10-16T06:34:09;18.45;;;10.70;;
35225;SDS011;21813;49.686;21.766;2022-10-16T06:36:38;18.10;;;11.30;;
35225;SDS011;21813;49.686;21.766;2022-10-16T06:39:05;17.85;;;10.80;;
35225;SDS011;21813;49.686;21.766;2022-10-16T06:41:33;17.80;;;10.38;;
35225;SDS011;21813;49.686;21.766;2022-10-16T06:43:59;15.68;;;10.73;;
35225;SDS011;21813;49.686;21.766;2022-10-16T06:46:26;14.32;;;10.55;;
35225;SDS011;21813;49.686;21.766;2022-10-16T06:48:52;13.65;;;8.98;;
35225;SDS011;21813;49.686;21.766;2022-10-16T06:51:19;14.65;;;9.77;;
35225;SDS011;21813;49.686;21.766;2022-10-16T06:53:47;17.75;;;9.52;;
35225;SDS011;21813;49.686;21.766;2022-10-16T06:58:46;21.13;;;9.82;;
35225;SDS011;21813;49.686;21.766;2022-10-16T07:01:16;15.90;;;9.38;;
35225;SDS011;21813;49.686;21.766;2022-10-16T07:03:43;13.10;;;8.68;;
35225;SDS011;21813;49.686;21.766;2022-10-16T07:06:13;13.18;;;8.40;;
35225;SDS011;21813;49.686;21.766;2022-10-16T07:08:42;15.63;;;8.88;;
35225;SDS011;21813;49.686;21.766;2022-10-16T07:16:48;15.20;;;8.10;;
35225;SDS011;21813;49.686;21.766;2022-10-16T07:22:39;12.10;;;8.05;;
35225;SDS011;21813;49.686;21.766;2022-10-16T07:25:20;15.15;;;8.20;;
35225;SDS011;21813;49.686;21.766;2022-10-16T07:27:49;16.85;;;8.13;;
35225;SDS011;21813;49.686;21.766;2022-10-16T07:30:25;10.65;;;7.80;;
35225;SDS011;21813;49.686;21.766;2022-10-16T07:32:51;11.98;;;7.53;;
35225;SDS011;21813;49.686;21.766;2022-10-16T07:35:30;13.27;;;7.22;;
35225;SDS011;21813;49.686;21.766;2022-10-16T07:37:58;10.50;;;7.78;;
35225;SDS011;21813;49.686;21.766;2022-10-16T07:40:25;11.15;;;7.85;;
35225;SDS011;21813;49.686;21.766;2022-10-16T07:42:52;13.60;;;7.88;;
35225;SDS011;21813;49.686;21.766;2022-10-16T07:45:25;11.63;;;7.27;;
35225;SDS011;21813;49.686;21.766;2022-10-16T07:47:51;10.73;;;7.43;;
35225;SDS011;21813;49.686;21.766;2022-10-16T07:53:11;10.65;;;7.75;;
35225;SDS011;21813;49.686;21.766;2022-10-16T07:55:52;13.30;;;8.07;;
35225;SDS011;21813;49.686;21.766;2022-10-16T07:58:25;13.82;;;7.78;;
35225;SDS011;21813;49.686;21.766;2022-10-16T08:01:03;11.18;;;7.75;;
35225;SDS011;21813;49.686;21.766;2022-10-16T08:03:31;13.02;;;7.85;;
35225;SDS011;21813;49.686;21.766;2022-10-16T08:05:58;9.63;;;7.50;;
35225;SDS011;21813;49.686;21.766;2022-10-16T08:08:25;10.57;;;7.95;;
35225;SDS011;21813;49.686;21.766;2022-10-16T08:10:52;9.75;;;7.68;;
35225;SDS011;21813;49.686;21.766;2022-10-16T08:13:18;10.68;;;7.40;;
35225;SDS011;21813;49.686;21.766;2022-10-16T08:15:46;9.02;;;7.68;;
35225;SDS011;21813;49.686;21.766;2022-10-16T08:18:13;14.00;;;8.32;;
35225;SDS011;21813;49.686;21.766;2022-10-16T08:20:40;11.77;;;7.35;;
35225;SDS011;21813;49.686;21.766;2022-10-16T08:23:08;12.88;;;7.75;;
35225;SDS011;21813;49.686;21.766;2022-10-16T08:25:37;16.58;;;7.85;;
35225;SDS011;21813;49.686;21.766;2022-10-16T08:28:09;11.18;;;7.40;;
35225;SDS011;21813;49.686;21.766;2022-10-16T08:30:39;13.88;;;7.43;;
35225;SDS011;21813;49.686;21.766;2022-10-16T08:33:08;9.63;;;7.00;;
35225;SDS011;21813;49.686;21.766;2022-10-16T08:35:35;11.75;;;7.15;;
35225;SDS011;21813;49.686;21.766;2022-10-16T08:38:04;14.13;;;7.07;;
35225;SDS011;21813;49.686;21.766;2022-10-16T08:40:32;10.90;;;7.30;;
35225;SDS011;21813;49.686;21.766;2022-10-16T08:43:16;11.05;;;6.93;;
35225;SDS011;21813;49.686;21.766;2022-10-16T08:48:36;11.88;;;7.30;;
35225;SDS011;21813;49.686;21.766;2022-10-16T08:51:32;12.80;;;7.40;;
35225;SDS011;21813;49.686;21.766;2022-10-16T08:54:14;11.90;;;7.30;;
35225;SDS011;21813;49.686;21.766;2022-10-16T08:56:54;13.15;;;6.95;;
35225;SDS011;21813;49.686;21.766;2022-10-16T08:59:26;12.52;;;6.60;;
35225;SDS011;21813;49.686;21.766;2022-10-16T09:01:52;11.38;;;7.38;;
35225;SDS011;21813;49.686;21.766;2022-10-16T09:04:41;10.82;;;6.68;;
35225;SDS011;21813;49.686;21.766;2022-10-16T09:07:58;13.63;;;7.55;;
35225;SDS011;21813;49.686;21.766;2022-10-16T09:16:35;13.70;;;8.20;;
35225;SDS011;21813;49.686;21.766;2022-10-16T09:19:09;13.45;;;7.55;;
35225;SDS011;21813;49.686;21.766;2022-10-16T09:21:46;11.38;;;6.90;;
35225;SDS011;21813;49.686;21.766;2022-10-16T09:24:20;14.15;;;7.13;;
35225;SDS011;21813;49.686;21.766;2022-10-16T09:26:50;13.23;;;7.38;;
35225;SDS011;21813;49.686;21.766;2022-10-16T09:29:16;14.80;;;7.93;;
35225;SDS011;21813;49.686;21.766;2022-10-16T09:31:47;12.23;;;6.60;;
35225;SDS011;21813;49.686;21.766;2022-10-16T09:34:34;13.52;;;8.05;;
35225;SDS011;21813;49.686;21.766;2022-10-16T09:37:03;12.30;;;7.25;;
35225;SDS011;21813;49.686;21.766;2022-10-16T09:39:46;11.18;;;6.65;;
35225;SDS011;21813;49.686;21.766;2022-10-16T09:42:54;9.68;;;6.88;;
35225;SDS011;21813;49.686;21.766;2022-10-16T09:45:02;10.88;;;7.18;;
35225;SDS011;21813;49.686;21.766;2022-10-16T09:47:29;11.40;;;7.18;;
35225;SDS011;21813;49.686;21.766;2022-10-16T09:50:04;9.68;;;6.50;;
35225;SDS011;21813;49.686;21.766;2022-10-16T09:52:44;10.55;;;6.35;;
35225;SDS011;21813;49.686;21.766;2022-10-16T09:55:14;7.72;;;5.70;;
35225;SDS011;21813;49.686;21.766;2022-10-16T09:57:48;14.32;;;7.28;;
35225;SDS011;21813;49.686;21.766;2022-10-16T10:00:19;14.48;;;7.28;;
35225;SDS011;21813;49.686;21.766;2022-10-16T10:02:45;9.23;;;6.53;;
35225;SDS011;21813;49.686;21.766;2022-10-16T10:05:20;10.02;;;6.80;;
35225;SDS011;21813;49.686;21.766;2022-10-16T10:07:55;8.48;;;6.10;;
35225;SDS011;21813;49.686;21.766;2022-10-16T10:10:30;11.70;;;6.53;;
35225;SDS011;21813;49.686;21.766;2022-10-16T10:18:29;10.40;;;6.78;;
35225;SDS011;21813;49.686;21.766;2022-10-16T11:01:41;12.55;;;6.68;;
35225;SDS011;21813;49.686;21.766;2022-10-16T11:04:41;9.13;;;5.82;;
35225;SDS011;21813;49.686;21.766;2022-10-16T11:10:48;11.43;;;6.43;;
35225;SDS011;21813;49.686;21.766;2022-10-16T11:26:54;15.27;;;5.60;;
35225;SDS011;21813;49.686;21.766;2022-10-16T12:11:05;14.48;;;6.43;;
35225;SDS011;21813;49.686;21.766;2022-10-16T12:13:46;9.57;;;5.95;;
35225;SDS011;21813;49.686;21.766;2022-10-16T12:18:42;7.63;;;6.40;;
35225;SDS011;21813;49.686;21.766;2022-10-16T12:21:11;10.60;;;5.60;;
35225;SDS011;21813;49.686;21.766;2022-10-16T12:23:50;8.70;;;5.65;;
35225;SDS011;21813;49.686;21.766;2022-10-16T12:26:26;11.07;;;6.20;;
35225;SDS011;21813;49.686;21.766;2022-10-16T12:28:55;9.75;;;6.10;;
35225;SDS011;21813;49.686;21.766;2022-10-16T12:31:44;10.43;;;6.07;;
35225;SDS011;21813;49.686;21.766;2022-10-16T12:37:09;11.00;;;5.55;;
35225;SDS011;21813;49.686;21.766;2022-10-16T12:39:41;10.32;;;7.10;;
35225;SDS011;21813;49.686;21.766;2022-10-16T12:45:02;8.63;;;6.38;;
35225;SDS011;21813;49.686;21.766;2022-10-16T12:47:52;9.10;;;6.00;;
35225;SDS011;21813;49.686;21.766;2022-10-16T12:52:57;13.05;;;5.43;;
35225;SDS011;21813;49.686;21.766;2022-10-16T12:55:24;7.63;;;5.53;;
35225;SDS011;21813;49.686;21.766;2022-10-16T13:00:48;9.40;;;5.55;;
35225;SDS011;21813;49.686;21.766;2022-10-16T13:12:00;9.43;;;5.13;;
35225;SDS011;21813;49.686;21.766;2022-10-16T13:18:07;10.93;;;5.80;;
35225;SDS011;21813;49.686;21.766;2022-10-16T13:26:46;15.43;;;6.20;;
35225;SDS011;21813;49.686;21.766;2022-10-16T13:29:23;8.23;;;5.70;;
35225;SDS011;21813;49.686;21.766;2022-10-16T13:32:09;8.25;;;5.47;;
35225;SDS011;21813;49.686;21.766;2022-10-16T13:34:43;10.27;;;6.03;;
35225;SDS011;21813;49.686;21.766;2022-10-16T13:37:19;10.48;;;6.10;;
35225;SDS011;21813;49.686;21.766;2022-10-16T13:39:46;13.20;;;6.18;;
35225;SDS011;21813;49.686;21.766;2022-10-16T13:42:14;6.28;;;5.25;;
35225;SDS011;21813;49.686;21.766;2022-10-16T13:44:52;13.45;;;6.55;;
35225;SDS011;21813;49.686;21.766;2022-10-16T13:50:00;12.63;;;6.97;;
35225;SDS011;21813;49.686;21.766;2022-10-16T13:52:29;8.18;;;6.18;;
35225;SDS011;21813;49.686;21.766;2022-10-16T13:54:56;7.50;;;6.30;;
35225;SDS011;21813;49.686;21.766;2022-10-16T13:57:25;11.02;;;6.55;;
35225;SDS011;21813;49.686;21.766;2022-10-16T14:03:23;13.55;;;6.55;;
35225;SDS011;21813;49.686;21.766;2022-10-16T14:06:24;11.05;;;7.32;;
35225;SDS011;21813;49.686;21.766;2022-10-16T14:12:25;14.93;;;6.38;;
35225;SDS011;21813;49.686;21.766;2022-10-16T14:14:53;13.15;;;7.25;;
35225;SDS011;21813;49.686;21.766;2022-10-16T14:17:48;12.25;;;6.50;;
35225;SDS011;21813;49.686;21.766;2022-10-16T14:20:17;14.90;;;6.55;;
35225;SDS011;21813;49.686;21.766;2022-10-16T14:22:44;12.70;;;6.60;;
35225;SDS011;21813;49.686;21.766;2022-10-16T14:30:59;10.52;;;6.40;;
35225;SDS011;21813;49.686;21.766;2022-10-16T18:11:58;13.60;;;7.78;;
35225;SDS011;21813;49.686;21.766;2022-10-16T18:15:01;10.93;;;7.40;;
35225;SDS011;21813;49.686;21.766;2022-10-16T18:24:14;14.20;;;8.68;;
35225;SDS011;21813;49.686;21.766;2022-10-16T18:26:41;14.55;;;9.10;;
35225;SDS011;21813;49.686;21.766;2022-10-16T18:29:07;12.77;;;8.25;;
35225;SDS011;21813;49.686;21.766;2022-10-16T18:31:37;15.65;;;9.95;;
35225;SDS011;21813;49.686;21.766;2022-10-16T18:34:21;18.13;;;9.10;;
35225;SDS011;21813;49.686;21.766;2022-10-16T18:36:52;18.92;;;9.88;;
35225;SDS011;21813;49.686;21.766;2022-10-16T18:39:19;18.40;;;9.02;;
35225;SDS011;21813;49.686;21.766;2022-10-16T18:41:49;18.33;;;10.75;;
35225;SDS011;21813;49.686;21.766;2022-10-16T18:44:15;12.77;;;7.75;;
35225;SDS011;21813;49.686;21.766;2022-10-16T18:46:42;10.77;;;8.20;;
35225;SDS011;21813;49.686;21.766;2022-10-16T18:49:08;14.88;;;8.38;;
35225;SDS011;21813;49.686;21.766;2022-10-16T18:51:36;11.55;;;8.45;;
35225;SDS011;21813;49.686;21.766;2022-10-16T18:54:08;13.05;;;8.10;;
35225;SDS011;21813;49.686;21.766;2022-10-16T18:56:37;15.23;;;8.05;;
35225;SDS011;21813;49.686;21.766;2022-10-16T18:59:06;11.00;;;7.35;;
35225;SDS011;21813;49.686;21.766;2022-10-16T19:01:35;9.02;;;6.90;;
35225;SDS011;21813;49.686;21.766;2022-10-16T19:04:04;10.55;;;7.20;;
35225;SDS011;21813;49.686;21.766;2022-10-16T19:06:33;10.27;;;7.30;;
35225;SDS011;21813;49.686;21.766;2022-10-16T19:09:01;12.82;;;7.60;;
35225;SDS011;21813;49.686;21.766;2022-10-16T19:11:29;20.15;;;8.90;;
35225;SDS011;21813;49.686;21.766;2022-10-16T19:13:56;13.70;;;7.45;;
35225;SDS011;21813;49.686;21.766;2022-10-16T19:16:23;9.85;;;6.72;;
35225;SDS011;21813;49.686;21.766;2022-10-16T19:18:52;9.98;;;8.02;;
35225;SDS011;21813;49.686;21.766;2022-10-16T19:21:20;10.48;;;7.03;;
35225;SDS011;21813;49.686;21.766;2022-10-16T19:23:50;12.90;;;7.40;;
35225;SDS011;21813;49.686;21.766;2022-10-16T19:26:27;14.75;;;7.22;;
35225;SDS011;21813;49.686;21.766;2022-10-16T19:29:18;11.55;;;8.23;;
35225;SDS011;21813;49.686;21.766;2022-10-16T19:31:45;11.68;;;7.53;;
35225;SDS011;21813;49.686;21.766;2022-10-16T19:36:43;10.10;;;6.78;;
35225;SDS011;21813;49.686;21.766;2022-10-16T19:39:18;11.05;;;7.25;;
35225;SDS011;21813;49.686;21.766;2022-10-16T19:41:45;10.75;;;7.22;;
35225;SDS011;21813;49.686;21.766;2022-10-16T19:44:13;13.32;;;7.32;;
35225;SDS011;21813;49.686;21.766;2022-10-16T19:46:41;10.70;;;7.75;;
35225;SDS011;21813;49.686;21.766;2022-10-16T19:49:08;10.15;;;6.78;;
35225;SDS011;21813;49.686;21.766;2022-10-16T19:51:37;11.82;;;7.20;;
35225;SDS011;21813;49.686;21.766;2022-10-16T19:54:04;11.23;;;7.28;;
35225;SDS011;21813;49.686;21.766;2022-10-16T19:56:36;11.55;;;7.05;;
35225;SDS011;21813;49.686;21.766;2022-10-16T19:59:03;12.52;;;7.15;;
35225;SDS011;21813;49.686;21.766;2022-10-16T20:01:31;9.88;;;6.60;;
35225;SDS011;21813;49.686;21.766;2022-10-16T20:03:57;12.38;;;7.53;;
35225;SDS011;21813;49.686;21.766;2022-10-16T20:06:24;14.63;;;7.68;;
35225;SDS011;21813;49.686;21.766;2022-10-16T20:08:50;11.55;;;7.80;;
35225;SDS011;21813;49.686;21.766;2022-10-16T20:11:23;13.80;;;7.65;;
35225;SDS011;21813;49.686;21.766;2022-10-16T20:16:17;10.40;;;7.72;;
35225;SDS011;21813;49.686;21.766;2022-10-16T20:18:44;16.77;;;7.93;;
35225;SDS011;21813;49.686;21.766;2022-10-16T20:21:13;10.95;;;7.45;;
35225;SDS011;21813;49.686;21.766;2022-10-16T20:23:42;9.88;;;6.75;;
35225;SDS011;21813;49.686;21.766;2022-10-16T20:26:09;14.00;;;7.60;;
35225;SDS011;21813;49.686;21.766;2022-10-16T20:28:35;10.38;;;7.63;;
35225;SDS011;21813;49.686;21.766;2022-10-16T20:31:06;14.50;;;7.63;;
35225;SDS011;21813;49.686;21.766;2022-10-16T20:33:33;9.77;;;7.85;;
35225;SDS011;21813;49.686;21.766;2022-10-16T20:36:00;13.40;;;7.20;;
35225;SDS011;21813;49.686;21.766;2022-10-16T20:38:25;12.30;;;7.28;;
35225;SDS011;21813;49.686;21.766;2022-10-16T20:40:54;13.02;;;7.25;;
35225;SDS011;21813;49.686;21.766;2022-10-16T20:43:19;10.20;;;7.95;;
35225;SDS011;21813;49.686;21.766;2022-10-16T20:45:46;13.57;;;7.78;;
35225;SDS011;21813;49.686;21.766;2022-10-16T20:48:13;13.07;;;7.55;;
35225;SDS011;21813;49.686;21.766;2022-10-16T20:50:40;11.80;;;7.38;;
35225;SDS011;21813;49.686;21.766;2022-10-16T20:53:06;9.60;;;7.40;;
35225;SDS011;21813;49.686;21.766;2022-10-16T20:55:36;12.27;;;7.68;;
35225;SDS011;21813;49.686;21.766;2022-10-16T20:58:02;11.20;;;7.05;;
35225;SDS011;21813;49.686;21.766;2022-10-16T21:00:30;13.00;;;8.10;;
35225;SDS011;21813;49.686;21.766;2022-10-16T21:02:56;15.63;;;7.85;;
35225;SDS011;21813;49.686;21.766;2022-10-16T21:05:23;14.18;;;7.95;;
35225;SDS011;21813;49.686;21.766;2022-10-16T21:07:53;14.80;;;8.13;;
35225;SDS011;21813;49.686;21.766;2022-10-16T21:10:24;11.88;;;8.05;;
35225;SDS011;21813;49.686;21.766;2022-10-16T21:12:53;12.43;;;7.85;;
35225;SDS011;21813;49.686;21.766;2022-10-16T21:15:20;15.75;;;8.90;;
35225;SDS011;21813;49.686;21.766;2022-10-16T21:17:46;15.80;;;8.68;;
35225;SDS011;21813;49.686;21.766;2022-10-16T21:20:13;18.90;;;9.50;;
35225;SDS011;21813;49.686;21.766;2022-10-16T21:22:39;13.82;;;9.40;;
35225;SDS011;21813;49.686;21.766;2022-10-16T21:25:07;15.40;;;10.07;;
35225;SDS011;21813;49.686;21.766;2022-10-16T21:27:37;14.50;;;9.52;;
35225;SDS011;21813;49.686;21.766;2022-10-16T21:30:04;15.90;;;9.02;;
35225;SDS011;21813;49.686;21.766;2022-10-16T21:32:34;13.05;;;8.82;;
35225;SDS011;21813;49.686;21.766;2022-10-16T21:35:01;16.25;;;8.60;;
35225;SDS011;21813;49.686;21.766;2022-10-16T21:37:27;14.85;;;8.80;;
35225;SDS011;21813;49.686;21.766;2022-10-16T21:39:54;15.73;;;8.80;;
35225;SDS011;21813;49.686;21.766;2022-10-16T21:42:20;13.52;;;8.32;;
35225;SDS011;21813;49.686;21.766;2022-10-16T21:44:47;17.58;;;9.27;;